sensor_id;sensor_type;location;lat;lon;timestamp;temperature;humidity
612;DHT22;293;53.888;11.464;2024-02-26T00:00:08;4.90;99.90
612;DHT22;293;53.888;11.464;2024-02-26T00:02:35;4.80;99.90
612;DHT22;293;53.888;11.464;2024-02-26T00:05:05;4.70;99.90
612;DHT22;293;53.888;11.464;2024-02-26T00:07:32;4.70;99.90
612;DHT22;293;53.888;11.464;2024-02-26T00:10:00;4.70;99.90
612;DHT22;293;53.888;11.464;2024-02-26T00:12:27;4.70;99.90
612;DHT22;293;53.888;11.464;2024-02-26T00:14:54;4.70;99.90
612;DHT22;293;53.888;11.464;2024-02-26T00:17:23;4.70;99.90
612;DHT22;293;53.888;11.464;2024-02-26T00:19:50;4.60;99.90
612;DHT22;293;53.888;11.464;2024-02-26T00:22:16;4.60;99.90
612;DHT22;293;53.888;11.464;2024-02-26T00:24:43;5.10;99.90
612;DHT22;293;53.888;11.464;2024-02-26T00:27:11;4.60;99.90
612;DHT22;293;53.888;11.464;2024-02-26T00:29:38;4.60;99.90
612;DHT22;293;53.888;11.464;2024-02-26T00:32:05;4.50;99.90
612;DHT22;293;53.888;11.464;2024-02-26T00:34:32;4.80;99.90
612;DHT22;293;53.888;11.464;2024-02-26T00:36:58;4.50;99.90
612;DHT22;293;53.888;11.464;2024-02-26T00:39:25;4.50;99.90
612;DHT22;293;53.888;11.464;2024-02-26T00:41:52;4.40;99.90
612;DHT22;293;53.888;11.464;2024-02-26T00:44:20;4.30;99.90
612;DHT22;293;53.888;11.464;2024-02-26T00:49:15;3.20;99.90
612;DHT22;293;53.888;11.464;2024-02-26T00:51:42;4.30;99.90
612;DHT22;293;53.888;11.464;2024-02-26T00:54:08;4.20;99.90
612;DHT22;293;53.888;11.464;2024-02-26T00:56:35;4.20;99.90
612;DHT22;293;53.888;11.464;2024-02-26T00:59:02;4.20;99.90
612;DHT22;293;53.888;11.464;2024-02-26T01:01:31;4.10;99.90
612;DHT22;293;53.888;11.464;2024-02-26T01:03:57;4.10;99.90
612;DHT22;293;53.888;11.464;2024-02-26T01:06:24;4.10;99.90
612;DHT22;293;53.888;11.464;2024-02-26T01:08:51;4.00;99.90
612;DHT22;293;53.888;11.464;2024-02-26T01:11:18;4.00;99.90
612;DHT22;293;53.888;11.464;2024-02-26T01:13:45;4.50;99.90
612;DHT22;293;53.888;11.464;2024-02-26T01:16:11;3.90;99.90
612;DHT22;293;53.888;11.464;2024-02-26T01:18:40;3.90;99.90
612;DHT22;293;53.888;11.464;2024-02-26T01:21:07;3.90;99.90
612;DHT22;293;53.888;11.464;2024-02-26T01:23:34;3.80;99.90
612;DHT22;293;53.888;11.464;2024-02-26T01:26:01;3.80;99.90
612;DHT22;293;53.888;11.464;2024-02-26T01:28:30;3.50;99.90
612;DHT22;293;53.888;11.464;2024-02-26T01:30:57;3.80;99.90
612;DHT22;293;53.888;11.464;2024-02-26T01:33:25;3.70;99.90
612;DHT22;293;53.888;11.464;2024-02-26T01:35:53;3.70;99.90
612;DHT22;293;53.888;11.464;2024-02-26T01:38:20;3.60;99.90
612;DHT22;293;53.888;11.464;2024-02-26T01:40:47;3.60;99.90
612;DHT22;293;53.888;11.464;2024-02-26T01:43:14;3.60;99.90
612;DHT22;293;53.888;11.464;2024-02-26T01:45:41;3.60;99.90
612;DHT22;293;53.888;11.464;2024-02-26T01:48:08;3.60;99.90
612;DHT22;293;53.888;11.464;2024-02-26T01:50:36;4.00;99.90
612;DHT22;293;53.888;11.464;2024-02-26T01:53:05;3.40;99.90
612;DHT22;293;53.888;11.464;2024-02-26T01:55:33;3.40;99.90
612;DHT22;293;53.888;11.464;2024-02-26T01:58:00;3.40;99.90
612;DHT22;293;53.888;11.464;2024-02-26T02:00:27;3.40;99.90
612;DHT22;293;53.888;11.464;2024-02-26T02:02:54;3.40;99.90
612;DHT22;293;53.888;11.464;2024-02-26T02:05:22;3.40;99.90
612;DHT22;293;53.888;11.464;2024-02-26T02:07:49;3.40;99.90
612;DHT22;293;53.888;11.464;2024-02-26T02:10:18;3.40;99.90
612;DHT22;293;53.888;11.464;2024-02-26T02:12:48;3.40;99.90
612;DHT22;293;53.888;11.464;2024-02-26T02:15:15;3.40;99.90
612;DHT22;293;53.888;11.464;2024-02-26T02:17:42;3.40;99.90
612;DHT22;293;53.888;11.464;2024-02-26T02:20:10;3.40;99.90
612;DHT22;293;53.888;11.464;2024-02-26T02:22:43;3.40;99.90
612;DHT22;293;53.888;11.464;2024-02-26T02:25:10;3.40;99.90
612;DHT22;293;53.888;11.464;2024-02-26T02:27:37;3.40;99.90
612;DHT22;293;53.888;11.464;2024-02-26T02:30:05;3.40;99.90
612;DHT22;293;53.888;11.464;2024-02-26T02:32:32;3.30;99.90
612;DHT22;293;53.888;11.464;2024-02-26T02:34:59;3.30;99.90
612;DHT22;293;53.888;11.464;2024-02-26T02:37:26;3.20;99.90
612;DHT22;293;53.888;11.464;2024-02-26T02:39:54;3.20;99.90
612;DHT22;293;53.888;11.464;2024-02-26T02:42:23;3.20;99.90
612;DHT22;293;53.888;11.464;2024-02-26T02:44:50;3.20;99.90
612;DHT22;293;53.888;11.464;2024-02-26T02:47:17;3.10;99.90
612;DHT22;293;53.888;11.464;2024-02-26T02:49:44;3.10;99.90
612;DHT22;293;53.888;11.464;2024-02-26T02:52:11;3.10;99.90
612;DHT22;293;53.888;11.464;2024-02-26T02:54:37;3.10;99.90
612;DHT22;293;53.888;11.464;2024-02-26T02:57:08;3.10;99.90
612;DHT22;293;53.888;11.464;2024-02-26T02:59:35;3.20;99.90
612;DHT22;293;53.888;11.464;2024-02-26T03:02:02;3.10;99.90
612;DHT22;293;53.888;11.464;2024-02-26T03:04:30;3.10;99.90
612;DHT22;293;53.888;11.464;2024-02-26T03:06:57;3.10;99.90
612;DHT22;293;53.888;11.464;2024-02-26T03:09:24;3.00;99.90
612;DHT22;293;53.888;11.464;2024-02-26T03:11:51;3.10;99.90
612;DHT22;293;53.888;11.464;2024-02-26T03:14:19;3.00;99.90
612;DHT22;293;53.888;11.464;2024-02-26T03:16:46;3.00;99.90
612;DHT22;293;53.888;11.464;2024-02-26T03:19:14;2.90;99.90
612;DHT22;293;53.888;11.464;2024-02-26T03:21:41;2.90;99.90
612;DHT22;293;53.888;11.464;2024-02-26T03:24:08;2.90;99.90
612;DHT22;293;53.888;11.464;2024-02-26T03:26:35;2.90;99.90
612;DHT22;293;53.888;11.464;2024-02-26T03:29:02;2.90;99.90
612;DHT22;293;53.888;11.464;2024-02-26T03:31:30;2.90;99.90
612;DHT22;293;53.888;11.464;2024-02-26T03:33:57;2.90;99.90
612;DHT22;293;53.888;11.464;2024-02-26T03:36:24;2.80;99.90
612;DHT22;293;53.888;11.464;2024-02-26T03:38:51;2.80;99.90
612;DHT22;293;53.888;11.464;2024-02-26T03:41:18;3.80;99.90
612;DHT22;293;53.888;11.464;2024-02-26T03:43:45;2.80;99.90
612;DHT22;293;53.888;11.464;2024-02-26T03:46:11;2.80;99.90
612;DHT22;293;53.888;11.464;2024-02-26T03:48:41;2.80;99.90
612;DHT22;293;53.888;11.464;2024-02-26T03:51:08;2.70;99.90
612;DHT22;293;53.888;11.464;2024-02-26T03:53:36;2.70;99.90
612;DHT22;293;53.888;11.464;2024-02-26T03:56:04;2.60;99.90
612;DHT22;293;53.888;11.464;2024-02-26T03:58:31;2.60;99.90
612;DHT22;293;53.888;11.464;2024-02-26T04:00:58;2.50;99.90
612;DHT22;293;53.888;11.464;2024-02-26T04:03:25;2.50;99.90
612;DHT22;293;53.888;11.464;2024-02-26T04:05:53;2.40;99.90
612;DHT22;293;53.888;11.464;2024-02-26T04:08:20;2.50;99.90
612;DHT22;293;53.888;11.464;2024-02-26T04:10:47;2.50;99.90
612;DHT22;293;53.888;11.464;2024-02-26T04:13:14;2.50;99.90
612;DHT22;293;53.888;11.464;2024-02-26T04:15:41;2.40;99.90
612;DHT22;293;53.888;11.464;2024-02-26T04:18:07;2.40;99.90
612;DHT22;293;53.888;11.464;2024-02-26T04:20:34;2.40;99.90
612;DHT22;293;53.888;11.464;2024-02-26T04:23:02;2.30;99.90
612;DHT22;293;53.888;11.464;2024-02-26T04:25:29;2.30;99.90
612;DHT22;293;53.888;11.464;2024-02-26T04:27:56;2.30;99.90
612;DHT22;293;53.888;11.464;2024-02-26T04:30:23;2.30;99.90
612;DHT22;293;53.888;11.464;2024-02-26T04:32:50;2.30;99.90
612;DHT22;293;53.888;11.464;2024-02-26T04:35:17;2.20;99.90
612;DHT22;293;53.888;11.464;2024-02-26T04:37:44;2.20;99.90
612;DHT22;293;53.888;11.464;2024-02-26T04:40:12;2.10;99.90
612;DHT22;293;53.888;11.464;2024-02-26T04:42:39;2.10;99.90
612;DHT22;293;53.888;11.464;2024-02-26T04:45:07;2.10;99.90
612;DHT22;293;53.888;11.464;2024-02-26T04:47:33;2.20;99.90
612;DHT22;293;53.888;11.464;2024-02-26T04:50:00;2.20;99.90
612;DHT22;293;53.888;11.464;2024-02-26T04:52:27;2.30;99.90
612;DHT22;293;53.888;11.464;2024-02-26T04:54:54;2.30;99.90
612;DHT22;293;53.888;11.464;2024-02-26T04:57:22;2.50;99.90
612;DHT22;293;53.888;11.464;2024-02-26T04:59:49;2.50;99.90
612;DHT22;293;53.888;11.464;2024-02-26T05:02:16;2.40;99.90
612;DHT22;293;53.888;11.464;2024-02-26T05:04:43;2.30;99.90
612;DHT22;293;53.888;11.464;2024-02-26T05:07:10;2.20;99.90
612;DHT22;293;53.888;11.464;2024-02-26T05:09:37;2.20;99.90
612;DHT22;293;53.888;11.464;2024-02-26T05:12:05;2.20;99.90
612;DHT22;293;53.888;11.464;2024-02-26T05:14:34;2.20;99.90
612;DHT22;293;53.888;11.464;2024-02-26T05:17:01;2.20;99.90
612;DHT22;293;53.888;11.464;2024-02-26T05:19:28;2.20;99.90
612;DHT22;293;53.888;11.464;2024-02-26T05:21:55;2.20;99.90
612;DHT22;293;53.888;11.464;2024-02-26T05:24:22;2.20;99.90
612;DHT22;293;53.888;11.464;2024-02-26T05:26:49;2.20;99.90
612;DHT22;293;53.888;11.464;2024-02-26T05:29:16;2.20;99.90
612;DHT22;293;53.888;11.464;2024-02-26T05:31:44;2.20;99.90
612;DHT22;293;53.888;11.464;2024-02-26T05:34:11;2.10;99.90
612;DHT22;293;53.888;11.464;2024-02-26T05:36:38;2.10;99.90
612;DHT22;293;53.888;11.464;2024-02-26T05:39:04;2.10;99.90
612;DHT22;293;53.888;11.464;2024-02-26T05:41:31;2.00;99.90
612;DHT22;293;53.888;11.464;2024-02-26T05:43:58;2.10;99.90
612;DHT22;293;53.888;11.464;2024-02-26T05:46:25;2.10;99.90
612;DHT22;293;53.888;11.464;2024-02-26T05:48:54;2.10;99.90
612;DHT22;293;53.888;11.464;2024-02-26T05:51:21;2.10;99.90
612;DHT22;293;53.888;11.464;2024-02-26T05:53:48;2.10;99.90
612;DHT22;293;53.888;11.464;2024-02-26T05:56:19;2.10;99.90
612;DHT22;293;53.888;11.464;2024-02-26T05:58:46;2.70;99.90
612;DHT22;293;53.888;11.464;2024-02-26T06:01:14;2.10;99.90
612;DHT22;293;53.888;11.464;2024-02-26T06:03:41;2.10;99.90
612;DHT22;293;53.888;11.464;2024-02-26T06:06:10;2.10;99.90
612;DHT22;293;53.888;11.464;2024-02-26T06:08:36;2.10;99.90
612;DHT22;293;53.888;11.464;2024-02-26T06:11:05;2.10;99.90
612;DHT22;293;53.888;11.464;2024-02-26T06:13:32;2.10;99.90
612;DHT22;293;53.888;11.464;2024-02-26T06:15:59;2.20;99.90
612;DHT22;293;53.888;11.464;2024-02-26T06:18:26;2.20;99.90
612;DHT22;293;53.888;11.464;2024-02-26T06:20:53;2.20;99.90
612;DHT22;293;53.888;11.464;2024-02-26T06:23:21;2.30;99.90
612;DHT22;293;53.888;11.464;2024-02-26T06:25:48;2.30;99.90
612;DHT22;293;53.888;11.464;2024-02-26T06:28:15;2.30;99.90
612;DHT22;293;53.888;11.464;2024-02-26T06:30:42;2.30;99.90
612;DHT22;293;53.888;11.464;2024-02-26T06:33:09;2.40;99.90
612;DHT22;293;53.888;11.464;2024-02-26T06:35:36;2.50;99.90
612;DHT22;293;53.888;11.464;2024-02-26T06:38:03;2.50;99.90
612;DHT22;293;53.888;11.464;2024-02-26T06:40:32;2.50;99.90
612;DHT22;293;53.888;11.464;2024-02-26T06:42:58;2.50;99.90
612;DHT22;293;53.888;11.464;2024-02-26T06:45:25;2.50;99.90
612;DHT22;293;53.888;11.464;2024-02-26T06:47:52;2.60;99.90
612;DHT22;293;53.888;11.464;2024-02-26T06:50:19;2.60;99.90
612;DHT22;293;53.888;11.464;2024-02-26T06:52:46;2.60;99.90
612;DHT22;293;53.888;11.464;2024-02-26T06:55:13;2.70;99.90
612;DHT22;293;53.888;11.464;2024-02-26T06:57:41;2.70;99.90
612;DHT22;293;53.888;11.464;2024-02-26T07:00:09;2.80;99.90
612;DHT22;293;53.888;11.464;2024-02-26T07:02:40;2.90;99.90
612;DHT22;293;53.888;11.464;2024-02-26T07:05:07;2.90;99.90
612;DHT22;293;53.888;11.464;2024-02-26T07:07:34;3.00;99.90
612;DHT22;293;53.888;11.464;2024-02-26T07:10:01;3.00;99.90
612;DHT22;293;53.888;11.464;2024-02-26T07:12:29;3.20;99.90
612;DHT22;293;53.888;11.464;2024-02-26T07:14:57;3.30;99.90
612;DHT22;293;53.888;11.464;2024-02-26T07:17:24;3.40;99.90
612;DHT22;293;53.888;11.464;2024-02-26T07:19:51;3.40;99.90
612;DHT22;293;53.888;11.464;2024-02-26T07:22:18;3.50;99.90
612;DHT22;293;53.888;11.464;2024-02-26T07:24:45;3.60;99.90
612;DHT22;293;53.888;11.464;2024-02-26T07:27:13;3.70;99.90
612;DHT22;293;53.888;11.464;2024-02-26T07:29:39;3.80;99.90
612;DHT22;293;53.888;11.464;2024-02-26T07:32:08;3.90;99.90
612;DHT22;293;53.888;11.464;2024-02-26T07:34:33;4.00;99.90
612;DHT22;293;53.888;11.464;2024-02-26T07:37:01;4.00;99.90
612;DHT22;293;53.888;11.464;2024-02-26T07:39:28;4.10;99.90
612;DHT22;293;53.888;11.464;2024-02-26T07:41:55;4.10;99.90
612;DHT22;293;53.888;11.464;2024-02-26T07:44:22;4.20;99.90
612;DHT22;293;53.888;11.464;2024-02-26T07:46:49;4.30;99.90
612;DHT22;293;53.888;11.464;2024-02-26T07:49:17;4.40;99.90
612;DHT22;293;53.888;11.464;2024-02-26T07:51:44;4.40;99.90
612;DHT22;293;53.888;11.464;2024-02-26T07:54:11;4.50;99.90
612;DHT22;293;53.888;11.464;2024-02-26T07:56:37;4.50;99.90
612;DHT22;293;53.888;11.464;2024-02-26T07:59:04;4.50;99.90
612;DHT22;293;53.888;11.464;2024-02-26T08:01:31;4.60;99.90
612;DHT22;293;53.888;11.464;2024-02-26T08:03:59;4.70;99.90
612;DHT22;293;53.888;11.464;2024-02-26T08:06:27;4.80;99.90
612;DHT22;293;53.888;11.464;2024-02-26T08:08:54;4.80;99.90
612;DHT22;293;53.888;11.464;2024-02-26T08:11:21;4.90;99.90
612;DHT22;293;53.888;11.464;2024-02-26T08:13:47;4.90;99.90
612;DHT22;293;53.888;11.464;2024-02-26T08:16:14;5.10;99.90
612;DHT22;293;53.888;11.464;2024-02-26T08:18:41;5.20;99.90
612;DHT22;293;53.888;11.464;2024-02-26T08:21:08;5.30;99.90
612;DHT22;293;53.888;11.464;2024-02-26T08:23:36;5.50;99.90
612;DHT22;293;53.888;11.464;2024-02-26T08:26:03;5.50;99.90
612;DHT22;293;53.888;11.464;2024-02-26T08:28:32;5.60;99.90
612;DHT22;293;53.888;11.464;2024-02-26T08:30:59;5.70;99.90
612;DHT22;293;53.888;11.464;2024-02-26T08:33:26;5.80;99.90
612;DHT22;293;53.888;11.464;2024-02-26T08:35:54;5.90;99.90
612;DHT22;293;53.888;11.464;2024-02-26T08:38:20;5.90;99.90
612;DHT22;293;53.888;11.464;2024-02-26T08:40:49;6.00;99.90
612;DHT22;293;53.888;11.464;2024-02-26T08:43:16;6.00;99.90
612;DHT22;293;53.888;11.464;2024-02-26T08:45:43;6.10;99.90
612;DHT22;293;53.888;11.464;2024-02-26T08:48:10;6.10;99.90
612;DHT22;293;53.888;11.464;2024-02-26T08:50:36;6.20;99.90
612;DHT22;293;53.888;11.464;2024-02-26T08:53:03;6.30;99.90
612;DHT22;293;53.888;11.464;2024-02-26T08:55:31;6.30;99.90
612;DHT22;293;53.888;11.464;2024-02-26T08:57:59;6.50;99.90
612;DHT22;293;53.888;11.464;2024-02-26T09:00:26;6.60;99.90
612;DHT22;293;53.888;11.464;2024-02-26T09:02:53;6.70;99.90
612;DHT22;293;53.888;11.464;2024-02-26T09:05:19;6.70;99.90
612;DHT22;293;53.888;11.464;2024-02-26T09:07:46;6.70;99.90
612;DHT22;293;53.888;11.464;2024-02-26T09:10:13;6.80;99.90
612;DHT22;293;53.888;11.464;2024-02-26T09:12:40;6.80;99.90
612;DHT22;293;53.888;11.464;2024-02-26T09:15:09;6.90;99.90
612;DHT22;293;53.888;11.464;2024-02-26T09:17:37;6.90;99.90
612;DHT22;293;53.888;11.464;2024-02-26T09:20:05;7.00;99.90
612;DHT22;293;53.888;11.464;2024-02-26T09:22:34;7.10;99.90
612;DHT22;293;53.888;11.464;2024-02-26T09:25:04;7.20;99.90
612;DHT22;293;53.888;11.464;2024-02-26T09:27:31;7.20;99.90
612;DHT22;293;53.888;11.464;2024-02-26T09:29:58;7.30;99.90
612;DHT22;293;53.888;11.464;2024-02-26T09:32:26;7.30;99.90
612;DHT22;293;53.888;11.464;2024-02-26T09:34:53;7.40;99.90
612;DHT22;293;53.888;11.464;2024-02-26T09:37:20;7.40;99.90
612;DHT22;293;53.888;11.464;2024-02-26T09:39:47;7.50;99.90
612;DHT22;293;53.888;11.464;2024-02-26T09:42:14;7.40;99.90
612;DHT22;293;53.888;11.464;2024-02-26T09:44:42;7.40;99.90
612;DHT22;293;53.888;11.464;2024-02-26T09:47:11;7.50;99.90
612;DHT22;293;53.888;11.464;2024-02-26T09:49:42;7.60;99.90
612;DHT22;293;53.888;11.464;2024-02-26T09:52:10;7.70;99.90
612;DHT22;293;53.888;11.464;2024-02-26T09:54:38;7.80;99.90
612;DHT22;293;53.888;11.464;2024-02-26T09:57:08;7.80;99.90
612;DHT22;293;53.888;11.464;2024-02-26T09:59:40;7.90;99.90
612;DHT22;293;53.888;11.464;2024-02-26T10:02:09;8.00;99.90
612;DHT22;293;53.888;11.464;2024-02-26T10:04:38;8.00;99.90
612;DHT22;293;53.888;11.464;2024-02-26T10:07:10;8.00;99.90
612;DHT22;293;53.888;11.464;2024-02-26T10:09:37;8.10;99.90
612;DHT22;293;53.888;11.464;2024-02-26T10:12:04;8.10;99.90
612;DHT22;293;53.888;11.464;2024-02-26T10:14:31;8.20;99.90
612;DHT22;293;53.888;11.464;2024-02-26T10:16:59;8.20;99.90
612;DHT22;293;53.888;11.464;2024-02-26T10:19:28;8.30;99.90
612;DHT22;293;53.888;11.464;2024-02-26T10:21:56;8.30;99.90
612;DHT22;293;53.888;11.464;2024-02-26T10:24:25;8.40;99.90
612;DHT22;293;53.888;11.464;2024-02-26T10:26:52;8.40;99.90
612;DHT22;293;53.888;11.464;2024-02-26T10:29:20;8.40;99.90
612;DHT22;293;53.888;11.464;2024-02-26T10:31:47;8.40;99.90
612;DHT22;293;53.888;11.464;2024-02-26T10:34:15;8.50;99.90
612;DHT22;293;53.888;11.464;2024-02-26T10:36:42;8.50;99.90
612;DHT22;293;53.888;11.464;2024-02-26T10:39:11;8.50;99.90
612;DHT22;293;53.888;11.464;2024-02-26T10:41:40;8.50;99.90
612;DHT22;293;53.888;11.464;2024-02-26T10:44:09;8.60;99.90
612;DHT22;293;53.888;11.464;2024-02-26T10:46:38;8.60;99.90
612;DHT22;293;53.888;11.464;2024-02-26T10:49:04;8.70;99.90
612;DHT22;293;53.888;11.464;2024-02-26T10:51:34;8.80;99.90
612;DHT22;293;53.888;11.464;2024-02-26T10:54:04;8.80;99.90
612;DHT22;293;53.888;11.464;2024-02-26T10:56:34;8.80;99.90
612;DHT22;293;53.888;11.464;2024-02-26T10:59:07;8.90;99.90
612;DHT22;293;53.888;11.464;2024-02-26T11:01:36;8.90;99.90
612;DHT22;293;53.888;11.464;2024-02-26T11:04:04;8.80;99.90
612;DHT22;293;53.888;11.464;2024-02-26T11:06:31;8.80;99.90
612;DHT22;293;53.888;11.464;2024-02-26T11:09:01;8.80;99.90
612;DHT22;293;53.888;11.464;2024-02-26T11:11:29;8.80;99.90
612;DHT22;293;53.888;11.464;2024-02-26T11:13:57;8.80;99.90
612;DHT22;293;53.888;11.464;2024-02-26T11:16:27;8.80;99.90
612;DHT22;293;53.888;11.464;2024-02-26T11:18:55;8.80;99.90
612;DHT22;293;53.888;11.464;2024-02-26T11:21:23;8.90;99.90
612;DHT22;293;53.888;11.464;2024-02-26T11:23:55;8.90;99.90
612;DHT22;293;53.888;11.464;2024-02-26T11:26:23;8.90;99.90
612;DHT22;293;53.888;11.464;2024-02-26T11:28:52;8.90;99.90
612;DHT22;293;53.888;11.464;2024-02-26T11:31:19;9.00;99.90
612;DHT22;293;53.888;11.464;2024-02-26T11:33:55;9.10;99.90
612;DHT22;293;53.888;11.464;2024-02-26T11:36:23;9.10;99.90
612;DHT22;293;53.888;11.464;2024-02-26T11:38:51;9.20;99.90
612;DHT22;293;53.888;11.464;2024-02-26T11:41:18;9.20;99.90
612;DHT22;293;53.888;11.464;2024-02-26T11:43:51;9.30;99.90
612;DHT22;293;53.888;11.464;2024-02-26T11:46:25;9.40;99.90
612;DHT22;293;53.888;11.464;2024-02-26T11:48:56;9.50;99.90
612;DHT22;293;53.888;11.464;2024-02-26T11:51:26;9.50;99.90
612;DHT22;293;53.888;11.464;2024-02-26T11:53:53;9.70;99.90
612;DHT22;293;53.888;11.464;2024-02-26T11:56:23;9.80;99.90
612;DHT22;293;53.888;11.464;2024-02-26T11:59:00;9.80;99.90
612;DHT22;293;53.888;11.464;2024-02-26T12:01:43;9.80;99.90
612;DHT22;293;53.888;11.464;2024-02-26T12:04:17;9.70;99.90
612;DHT22;293;53.888;11.464;2024-02-26T12:06:52;9.70;99.90
612;DHT22;293;53.888;11.464;2024-02-26T12:09:36;9.70;99.90
612;DHT22;293;53.888;11.464;2024-02-26T12:12:05;9.70;99.90
612;DHT22;293;53.888;11.464;2024-02-26T12:14:33;9.60;99.90
612;DHT22;293;53.888;11.464;2024-02-26T12:17:01;9.50;99.90
612;DHT22;293;53.888;11.464;2024-02-26T12:19:34;9.50;99.90
612;DHT22;293;53.888;11.464;2024-02-26T12:22:01;9.60;99.90
612;DHT22;293;53.888;11.464;2024-02-26T12:24:28;9.60;99.90
612;DHT22;293;53.888;11.464;2024-02-26T12:26:55;9.70;99.90
612;DHT22;293;53.888;11.464;2024-02-26T12:29:23;9.70;99.90
612;DHT22;293;53.888;11.464;2024-02-26T12:31:50;9.70;99.90
612;DHT22;293;53.888;11.464;2024-02-26T12:34:17;9.60;99.90
612;DHT22;293;53.888;11.464;2024-02-26T12:36:46;9.60;99.90
612;DHT22;293;53.888;11.464;2024-02-26T12:39:13;9.50;99.90
612;DHT22;293;53.888;11.464;2024-02-26T12:41:39;9.40;99.90
612;DHT22;293;53.888;11.464;2024-02-26T12:44:07;9.40;99.90
612;DHT22;293;53.888;11.464;2024-02-26T12:46:34;9.40;99.90
612;DHT22;293;53.888;11.464;2024-02-26T12:49:01;9.40;99.90
612;DHT22;293;53.888;11.464;2024-02-26T12:51:28;9.40;99.90
612;DHT22;293;53.888;11.464;2024-02-26T12:53:57;9.30;99.90
612;DHT22;293;53.888;11.464;2024-02-26T12:56:26;9.30;99.90
612;DHT22;293;53.888;11.464;2024-02-26T12:58:54;9.50;99.90
612;DHT22;293;53.888;11.464;2024-02-26T13:01:23;9.40;99.90
612;DHT22;293;53.888;11.464;2024-02-26T13:03:51;9.40;99.90
612;DHT22;293;53.888;11.464;2024-02-26T13:06:19;9.30;99.90
612;DHT22;293;53.888;11.464;2024-02-26T13:08:47;9.30;99.90
612;DHT22;293;53.888;11.464;2024-02-26T13:11:14;9.30;99.90
612;DHT22;293;53.888;11.464;2024-02-26T13:13:41;9.20;99.90
612;DHT22;293;53.888;11.464;2024-02-26T13:16:10;9.10;99.90
612;DHT22;293;53.888;11.464;2024-02-26T13:18:40;9.10;99.90
612;DHT22;293;53.888;11.464;2024-02-26T13:21:09;9.10;99.90
612;DHT22;293;53.888;11.464;2024-02-26T13:23:37;8.90;99.90
612;DHT22;293;53.888;11.464;2024-02-26T13:26:04;8.90;99.90
612;DHT22;293;53.888;11.464;2024-02-26T13:28:32;8.90;99.90
612;DHT22;293;53.888;11.464;2024-02-26T13:31:00;8.90;99.90
612;DHT22;293;53.888;11.464;2024-02-26T13:33:29;9.00;99.90
612;DHT22;293;53.888;11.464;2024-02-26T13:35:57;9.00;99.90
612;DHT22;293;53.888;11.464;2024-02-26T13:38:24;8.90;99.90
612;DHT22;293;53.888;11.464;2024-02-26T13:40:51;8.90;99.90
612;DHT22;293;53.888;11.464;2024-02-26T13:43:18;8.80;99.90
612;DHT22;293;53.888;11.464;2024-02-26T13:45:47;8.80;99.90
612;DHT22;293;53.888;11.464;2024-02-26T13:48:15;8.80;99.90
612;DHT22;293;53.888;11.464;2024-02-26T13:50:42;8.70;99.90
612;DHT22;293;53.888;11.464;2024-02-26T13:53:10;8.70;99.90
612;DHT22;293;53.888;11.464;2024-02-26T13:55:39;8.70;99.90
612;DHT22;293;53.888;11.464;2024-02-26T13:58:08;8.50;99.90
612;DHT22;293;53.888;11.464;2024-02-26T14:00:37;8.50;99.90
612;DHT22;293;53.888;11.464;2024-02-26T14:03:06;8.40;99.90
612;DHT22;293;53.888;11.464;2024-02-26T14:05:33;8.40;99.90
612;DHT22;293;53.888;11.464;2024-02-26T14:07:59;8.30;99.90
612;DHT22;293;53.888;11.464;2024-02-26T14:10:26;8.00;99.90
612;DHT22;293;53.888;11.464;2024-02-26T14:12:53;7.90;99.90
612;DHT22;293;53.888;11.464;2024-02-26T14:15:20;7.80;99.90
612;DHT22;293;53.888;11.464;2024-02-26T14:17:47;7.70;99.90
612;DHT22;293;53.888;11.464;2024-02-26T14:20:20;7.70;99.90
612;DHT22;293;53.888;11.464;2024-02-26T14:22:48;7.80;99.90
612;DHT22;293;53.888;11.464;2024-02-26T14:25:14;7.80;99.90
612;DHT22;293;53.888;11.464;2024-02-26T14:27:41;7.70;99.90
612;DHT22;293;53.888;11.464;2024-02-26T14:30:09;7.60;99.90
612;DHT22;293;53.888;11.464;2024-02-26T14:32:35;7.50;99.90
612;DHT22;293;53.888;11.464;2024-02-26T14:35:05;7.50;99.90
612;DHT22;293;53.888;11.464;2024-02-26T14:37:33;7.50;99.90
612;DHT22;293;53.888;11.464;2024-02-26T14:40:00;7.50;99.90
612;DHT22;293;53.888;11.464;2024-02-26T14:42:27;7.50;99.90
612;DHT22;293;53.888;11.464;2024-02-26T14:44:54;7.40;99.90
612;DHT22;293;53.888;11.464;2024-02-26T14:47:21;7.40;99.90
612;DHT22;293;53.888;11.464;2024-02-26T14:49:48;7.40;99.90
612;DHT22;293;53.888;11.464;2024-02-26T14:52:17;7.20;99.90
612;DHT22;293;53.888;11.464;2024-02-26T14:54:45;7.20;99.90
612;DHT22;293;53.888;11.464;2024-02-26T14:57:12;7.20;99.90
612;DHT22;293;53.888;11.464;2024-02-26T14:59:39;7.10;99.90
612;DHT22;293;53.888;11.464;2024-02-26T15:02:06;7.10;99.90
612;DHT22;293;53.888;11.464;2024-02-26T15:04:35;7.10;99.90
612;DHT22;293;53.888;11.464;2024-02-26T15:07:02;7.10;99.90
612;DHT22;293;53.888;11.464;2024-02-26T15:09:29;7.10;99.90
612;DHT22;293;53.888;11.464;2024-02-26T15:11:57;7.10;99.90
612;DHT22;293;53.888;11.464;2024-02-26T15:14:24;7.10;99.90
612;DHT22;293;53.888;11.464;2024-02-26T15:16:52;7.10;99.90
612;DHT22;293;53.888;11.464;2024-02-26T15:19:19;7.10;99.90
612;DHT22;293;53.888;11.464;2024-02-26T15:21:47;7.10;99.90
612;DHT22;293;53.888;11.464;2024-02-26T15:24:15;7.20;99.90
612;DHT22;293;53.888;11.464;2024-02-26T15:26:43;7.20;99.90
612;DHT22;293;53.888;11.464;2024-02-26T15:29:12;7.20;99.90
612;DHT22;293;53.888;11.464;2024-02-26T15:31:39;7.30;99.90
612;DHT22;293;53.888;11.464;2024-02-26T15:34:06;7.20;99.90
612;DHT22;293;53.888;11.464;2024-02-26T15:36:34;7.20;99.90
612;DHT22;293;53.888;11.464;2024-02-26T15:39:01;7.10;99.90
612;DHT22;293;53.888;11.464;2024-02-26T15:41:28;7.10;99.90
612;DHT22;293;53.888;11.464;2024-02-26T15:43:55;7.10;99.90
612;DHT22;293;53.888;11.464;2024-02-26T15:46:23;6.90;99.90
612;DHT22;293;53.888;11.464;2024-02-26T15:48:50;6.90;99.90
612;DHT22;293;53.888;11.464;2024-02-26T15:51:21;6.80;99.90
612;DHT22;293;53.888;11.464;2024-02-26T15:53:49;6.80;99.90
612;DHT22;293;53.888;11.464;2024-02-26T15:56:17;6.70;99.90
612;DHT22;293;53.888;11.464;2024-02-26T15:58:44;6.50;99.90
612;DHT22;293;53.888;11.464;2024-02-26T16:01:11;6.40;99.90
612;DHT22;293;53.888;11.464;2024-02-26T16:03:39;6.30;99.90
612;DHT22;293;53.888;11.464;2024-02-26T16:06:08;6.30;99.90
612;DHT22;293;53.888;11.464;2024-02-26T16:08:36;6.20;99.90
612;DHT22;293;53.888;11.464;2024-02-26T16:11:03;6.10;99.90
612;DHT22;293;53.888;11.464;2024-02-26T16:13:31;6.00;99.90
612;DHT22;293;53.888;11.464;2024-02-26T16:16:02;5.90;99.90
612;DHT22;293;53.888;11.464;2024-02-26T16:18:30;5.90;99.90
612;DHT22;293;53.888;11.464;2024-02-26T16:20:59;5.90;99.90
612;DHT22;293;53.888;11.464;2024-02-26T16:23:25;5.90;99.90
612;DHT22;293;53.888;11.464;2024-02-26T16:25:52;5.90;99.90
612;DHT22;293;53.888;11.464;2024-02-26T16:28:19;5.80;99.90
612;DHT22;293;53.888;11.464;2024-02-26T16:30:50;5.70;99.90
612;DHT22;293;53.888;11.464;2024-02-26T16:33:18;5.70;99.90
612;DHT22;293;53.888;11.464;2024-02-26T16:35:45;5.70;99.90
612;DHT22;293;53.888;11.464;2024-02-26T16:38:13;5.70;99.90